sensor_id;sensor_type;location;lat;lon;timestamp;temperature;humidity
25248;DHT22;13191;47.472;11.214;2023-07-30T00:01:36;15.40;99.90
25248;DHT22;13191;47.472;11.214;2023-07-30T00:04:01;15.40;99.90
25248;DHT22;13191;47.472;11.214;2023-07-30T00:06:27;15.40;99.90
25248;DHT22;13191;47.472;11.214;2023-07-30T00:08:52;15.30;99.90
25248;DHT22;13191;47.472;11.214;2023-07-30T00:11:18;15.30;99.90
25248;DHT22;13191;47.472;11.214;2023-07-30T00:13:43;15.40;99.90
25248;DHT22;13191;47.472;11.214;2023-07-30T00:16:09;15.40;99.90
25248;DHT22;13191;47.472;11.214;2023-07-30T00:18:35;15.40;99.90
25248;DHT22;13191;47.472;11.214;2023-07-30T00:21:00;15.40;99.90
25248;DHT22;13191;47.472;11.214;2023-07-30T00:23:26;15.30;99.90
25248;DHT22;13191;47.472;11.214;2023-07-30T00:25:51;15.20;99.90
25248;DHT22;13191;47.472;11.214;2023-07-30T00:28:17;15.20;99.90
25248;DHT22;13191;47.472;11.214;2023-07-30T00:30:42;15.20;99.90
25248;DHT22;13191;47.472;11.214;2023-07-30T00:33:08;15.10;99.90
25248;DHT22;13191;47.472;11.214;2023-07-30T00:35:34;15.00;99.90
25248;DHT22;13191;47.472;11.214;2023-07-30T00:37:59;14.90;99.90
25248;DHT22;13191;47.472;11.214;2023-07-30T00:40:25;15.00;99.90
25248;DHT22;13191;47.472;11.214;2023-07-30T00:42:50;15.00;99.90
25248;DHT22;13191;47.472;11.214;2023-07-30T00:45:16;15.10;99.90
25248;DHT22;13191;47.472;11.214;2023-07-30T00:47:41;15.10;99.90
25248;DHT22;13191;47.472;11.214;2023-07-30T00:50:08;15.10;99.90
25248;DHT22;13191;47.472;11.214;2023-07-30T00:52:35;15.10;99.90
25248;DHT22;13191;47.472;11.214;2023-07-30T00:55:02;15.20;99.90
25248;DHT22;13191;47.472;11.214;2023-07-30T00:57:28;15.10;99.90
25248;DHT22;13191;47.472;11.214;2023-07-30T00:59:55;15.00;99.90
25248;DHT22;13191;47.472;11.214;2023-07-30T01:02:21;14.90;99.90
25248;DHT22;13191;47.472;11.214;2023-07-30T01:04:47;14.80;99.90
25248;DHT22;13191;47.472;11.214;2023-07-30T01:07:12;14.80;99.90
25248;DHT22;13191;47.472;11.214;2023-07-30T01:09:38;14.70;99.90
25248;DHT22;13191;47.472;11.214;2023-07-30T01:12:05;14.80;99.90
25248;DHT22;13191;47.472;11.214;2023-07-30T01:14:31;14.80;99.90
25248;DHT22;13191;47.472;11.214;2023-07-30T01:16:57;14.90;99.90
25248;DHT22;13191;47.472;11.214;2023-07-30T01:19:23;15.00;99.90
25248;DHT22;13191;47.472;11.214;2023-07-30T01:21:48;15.00;99.90
25248;DHT22;13191;47.472;11.214;2023-07-30T01:24:14;15.00;99.90
25248;DHT22;13191;47.472;11.214;2023-07-30T01:26:55;15.00;99.90
25248;DHT22;13191;47.472;11.214;2023-07-30T01:29:27;15.00;99.90
25248;DHT22;13191;47.472;11.214;2023-07-30T01:31:56;15.00;99.90
25248;DHT22;13191;47.472;11.214;2023-07-30T01:34:27;15.10;99.90
25248;DHT22;13191;47.472;11.214;2023-07-30T01:36:53;15.10;99.90
25248;DHT22;13191;47.472;11.214;2023-07-30T01:39:20;15.10;99.90
25248;DHT22;13191;47.472;11.214;2023-07-30T01:41:45;15.00;99.90
25248;DHT22;13191;47.472;11.214;2023-07-30T01:44:11;15.00;99.90
25248;DHT22;13191;47.472;11.214;2023-07-30T01:46:37;15.00;99.90
25248;DHT22;13191;47.472;11.214;2023-07-30T01:49:02;15.00;99.90
25248;DHT22;13191;47.472;11.214;2023-07-30T01:51:29;15.00;99.90
25248;DHT22;13191;47.472;11.214;2023-07-30T01:53:54;15.10;99.90
25248;DHT22;13191;47.472;11.214;2023-07-30T01:56:20;15.10;99.90
25248;DHT22;13191;47.472;11.214;2023-07-30T01:58:45;15.10;99.90
25248;DHT22;13191;47.472;11.214;2023-07-30T02:01:11;15.10;99.90
25248;DHT22;13191;47.472;11.214;2023-07-30T02:03:37;15.10;99.90
25248;DHT22;13191;47.472;11.214;2023-07-30T02:06:02;15.00;99.90
25248;DHT22;13191;47.472;11.214;2023-07-30T02:08:28;14.90;99.90
25248;DHT22;13191;47.472;11.214;2023-07-30T02:10:58;14.90;99.90
25248;DHT22;13191;47.472;11.214;2023-07-30T02:13:24;14.90;99.90
25248;DHT22;13191;47.472;11.214;2023-07-30T02:15:50;14.90;99.90
25248;DHT22;13191;47.472;11.214;2023-07-30T02:18:16;14.90;99.90
25248;DHT22;13191;47.472;11.214;2023-07-30T02:20:41;14.80;99.90
25248;DHT22;13191;47.472;11.214;2023-07-30T02:23:07;14.70;99.90
25248;DHT22;13191;47.472;11.214;2023-07-30T02:25:33;14.80;99.90
25248;DHT22;13191;47.472;11.214;2023-07-30T02:28:00;14.80;99.90
25248;DHT22;13191;47.472;11.214;2023-07-30T02:30:26;14.80;99.90
25248;DHT22;13191;47.472;11.214;2023-07-30T02:32:52;14.70;99.90
25248;DHT22;13191;47.472;11.214;2023-07-30T02:35:17;14.80;99.90
25248;DHT22;13191;47.472;11.214;2023-07-30T02:37:43;14.80;99.90
25248;DHT22;13191;47.472;11.214;2023-07-30T02:40:09;14.80;99.90
25248;DHT22;13191;47.472;11.214;2023-07-30T02:42:34;14.80;99.90
25248;DHT22;13191;47.472;11.214;2023-07-30T02:45:00;14.80;99.90
25248;DHT22;13191;47.472;11.214;2023-07-30T02:47:26;14.80;99.90
25248;DHT22;13191;47.472;11.214;2023-07-30T02:49:51;14.80;99.90
25248;DHT22;13191;47.472;11.214;2023-07-30T02:52:17;14.80;99.90
25248;DHT22;13191;47.472;11.214;2023-07-30T02:54:42;14.70;99.90
25248;DHT22;13191;47.472;11.214;2023-07-30T02:57:08;14.70;99.90
25248;DHT22;13191;47.472;11.214;2023-07-30T02:59:33;14.70;99.90
25248;DHT22;13191;47.472;11.214;2023-07-30T03:02:03;14.60;99.90
25248;DHT22;13191;47.472;11.214;2023-07-30T03:04:30;14.60;99.90
25248;DHT22;13191;47.472;11.214;2023-07-30T03:06:56;14.50;99.90
25248;DHT22;13191;47.472;11.214;2023-07-30T03:09:21;14.60;99.90
25248;DHT22;13191;47.472;11.214;2023-07-30T03:11:49;14.70;99.90
25248;DHT22;13191;47.472;11.214;2023-07-30T03:14:15;14.70;99.90
25248;DHT22;13191;47.472;11.214;2023-07-30T03:16:40;14.70;99.90
25248;DHT22;13191;47.472;11.214;2023-07-30T03:19:06;14.70;99.90
25248;DHT22;13191;47.472;11.214;2023-07-30T03:21:31;14.70;99.90
25248;DHT22;13191;47.472;11.214;2023-07-30T03:23:57;14.60;99.90
25248;DHT22;13191;47.472;11.214;2023-07-30T03:26:22;14.60;99.90
25248;DHT22;13191;47.472;11.214;2023-07-30T03:28:48;14.60;99.90
25248;DHT22;13191;47.472;11.214;2023-07-30T03:31:14;14.60;99.90
25248;DHT22;13191;47.472;11.214;2023-07-30T03:33:40;14.60;99.90
25248;DHT22;13191;47.472;11.214;2023-07-30T03:36:10;14.60;99.90
25248;DHT22;13191;47.472;11.214;2023-07-30T03:38:35;14.60;99.90
25248;DHT22;13191;47.472;11.214;2023-07-30T03:41:01;14.60;99.90
25248;DHT22;13191;47.472;11.214;2023-07-30T03:43:26;14.70;99.90
25248;DHT22;13191;47.472;11.214;2023-07-30T03:45:52;14.70;99.90
25248;DHT22;13191;47.472;11.214;2023-07-30T03:48:17;14.70;99.90
25248;DHT22;13191;47.472;11.214;2023-07-30T03:50:43;14.90;99.90
25248;DHT22;13191;47.472;11.214;2023-07-30T03:53:09;14.90;99.90
25248;DHT22;13191;47.472;11.214;2023-07-30T03:55:34;14.90;99.90
25248;DHT22;13191;47.472;11.214;2023-07-30T03:58:00;14.90;99.90
25248;DHT22;13191;47.472;11.214;2023-07-30T04:00:25;14.90;99.90
25248;DHT22;13191;47.472;11.214;2023-07-30T04:02:51;14.70;99.90
25248;DHT22;13191;47.472;11.214;2023-07-30T04:05:16;14.90;99.90
25248;DHT22;13191;47.472;11.214;2023-07-30T04:07:42;14.80;99.90
25248;DHT22;13191;47.472;11.214;2023-07-30T04:10:08;14.90;99.90
25248;DHT22;13191;47.472;11.214;2023-07-30T04:12:33;14.90;99.90
25248;DHT22;13191;47.472;11.214;2023-07-30T04:14:59;14.90;99.90
25248;DHT22;13191;47.472;11.214;2023-07-30T04:17:24;14.80;99.90
25248;DHT22;13191;47.472;11.214;2023-07-30T04:19:50;14.80;99.90
25248;DHT22;13191;47.472;11.214;2023-07-30T04:22:15;14.80;99.90
25248;DHT22;13191;47.472;11.214;2023-07-30T04:24:41;14.80;99.90
25248;DHT22;13191;47.472;11.214;2023-07-30T04:27:07;14.80;99.90
25248;DHT22;13191;47.472;11.214;2023-07-30T04:29:32;14.80;99.90
25248;DHT22;13191;47.472;11.214;2023-07-30T04:31:58;14.90;99.90
25248;DHT22;13191;47.472;11.214;2023-07-30T04:34:23;14.90;99.90
25248;DHT22;13191;47.472;11.214;2023-07-30T04:36:49;14.90;99.90
25248;DHT22;13191;47.472;11.214;2023-07-30T04:39:15;14.90;99.90
25248;DHT22;13191;47.472;11.214;2023-07-30T04:41:40;14.80;99.90
25248;DHT22;13191;47.472;11.214;2023-07-30T04:44:06;14.80;99.90
25248;DHT22;13191;47.472;11.214;2023-07-30T04:46:31;14.80;99.90
25248;DHT22;13191;47.472;11.214;2023-07-30T04:48:58;14.80;99.90
25248;DHT22;13191;47.472;11.214;2023-07-30T04:51:24;14.90;99.90
25248;DHT22;13191;47.472;11.214;2023-07-30T04:53:49;14.90;99.90
25248;DHT22;13191;47.472;11.214;2023-07-30T04:56:15;15.00;99.90
25248;DHT22;13191;47.472;11.214;2023-07-30T04:58:40;15.00;99.90
25248;DHT22;13191;47.472;11.214;2023-07-30T05:01:06;15.00;99.90
25248;DHT22;13191;47.472;11.214;2023-07-30T05:03:31;15.00;99.90
25248;DHT22;13191;47.472;11.214;2023-07-30T05:05:57;15.00;99.90
25248;DHT22;13191;47.472;11.214;2023-07-30T05:08:22;15.00;99.90
25248;DHT22;13191;47.472;11.214;2023-07-30T05:10:48;15.00;99.90
25248;DHT22;13191;47.472;11.214;2023-07-30T05:13:14;15.00;99.90
25248;DHT22;13191;47.472;11.214;2023-07-30T05:15:39;15.10;99.90
25248;DHT22;13191;47.472;11.214;2023-07-30T05:18:05;15.10;99.90
25248;DHT22;13191;47.472;11.214;2023-07-30T05:20:30;15.10;99.90
25248;DHT22;13191;47.472;11.214;2023-07-30T05:22:56;15.20;99.90
25248;DHT22;13191;47.472;11.214;2023-07-30T05:25:21;15.20;99.90
25248;DHT22;13191;47.472;11.214;2023-07-30T05:27:48;15.20;99.90
25248;DHT22;13191;47.472;11.214;2023-07-30T05:30:13;15.20;99.90
25248;DHT22;13191;47.472;11.214;2023-07-30T05:32:39;15.30;99.90
25248;DHT22;13191;47.472;11.214;2023-07-30T05:35:05;15.30;99.90
25248;DHT22;13191;47.472;11.214;2023-07-30T05:37:31;15.30;99.90
25248;DHT22;13191;47.472;11.214;2023-07-30T05:39:56;15.30;99.90
25248;DHT22;13191;47.472;11.214;2023-07-30T05:42:22;15.30;99.90
25248;DHT22;13191;47.472;11.214;2023-07-30T05:44:47;15.30;99.90
25248;DHT22;13191;47.472;11.214;2023-07-30T05:47:13;15.30;99.90
25248;DHT22;13191;47.472;11.214;2023-07-30T05:49:39;15.30;99.90
25248;DHT22;13191;47.472;11.214;2023-07-30T05:52:05;15.30;99.90
25248;DHT22;13191;47.472;11.214;2023-07-30T05:54:30;15.40;99.90
25248;DHT22;13191;47.472;11.214;2023-07-30T05:56:56;15.40;99.90
25248;DHT22;13191;47.472;11.214;2023-07-30T05:59:21;15.40;99.90
25248;DHT22;13191;47.472;11.214;2023-07-30T06:01:47;15.50;99.90
25248;DHT22;13191;47.472;11.214;2023-07-30T06:04:13;15.50;99.90
25248;DHT22;13191;47.472;11.214;2023-07-30T06:06:38;15.50;99.90
25248;DHT22;13191;47.472;11.214;2023-07-30T06:09:04;15.50;99.90
25248;DHT22;13191;47.472;11.214;2023-07-30T06:11:30;15.50;99.90
25248;DHT22;13191;47.472;11.214;2023-07-30T06:13:55;15.60;99.90
25248;DHT22;13191;47.472;11.214;2023-07-30T06:16:21;15.70;99.90
25248;DHT22;13191;47.472;11.214;2023-07-30T06:18:47;15.70;99.90
25248;DHT22;13191;47.472;11.214;2023-07-30T06:21:13;15.70;99.90
25248;DHT22;13191;47.472;11.214;2023-07-30T06:23:38;15.80;99.90
25248;DHT22;13191;47.472;11.214;2023-07-30T06:26:04;15.90;99.90
25248;DHT22;13191;47.472;11.214;2023-07-30T06:28:30;15.90;99.90
25248;DHT22;13191;47.472;11.214;2023-07-30T06:33:21;16.10;99.90
25248;DHT22;13191;47.472;11.214;2023-07-30T06:35:47;16.10;99.90
25248;DHT22;13191;47.472;11.214;2023-07-30T06:38:12;16.20;99.90
25248;DHT22;13191;47.472;11.214;2023-07-30T06:40:38;16.30;99.90
25248;DHT22;13191;47.472;11.214;2023-07-30T06:43:03;16.40;99.90
25248;DHT22;13191;47.472;11.214;2023-07-30T06:45:29;16.40;99.90
25248;DHT22;13191;47.472;11.214;2023-07-30T06:47:54;16.40;99.90
25248;DHT22;13191;47.472;11.214;2023-07-30T06:50:20;16.50;99.90
25248;DHT22;13191;47.472;11.214;2023-07-30T06:52:45;16.60;99.90
25248;DHT22;13191;47.472;11.214;2023-07-30T06:55:11;16.60;99.90
25248;DHT22;13191;47.472;11.214;2023-07-30T06:57:37;16.70;99.90
25248;DHT22;13191;47.472;11.214;2023-07-30T07:00:02;16.70;99.90
25248;DHT22;13191;47.472;11.214;2023-07-30T07:02:28;16.70;99.90
25248;DHT22;13191;47.472;11.214;2023-07-30T07:04:54;16.70;99.90
25248;DHT22;13191;47.472;11.214;2023-07-30T07:07:20;16.70;99.90
25248;DHT22;13191;47.472;11.214;2023-07-30T07:09:46;16.80;99.90
25248;DHT22;13191;47.472;11.214;2023-07-30T07:12:12;16.80;99.90
25248;DHT22;13191;47.472;11.214;2023-07-30T07:14:37;16.90;99.90
25248;DHT22;13191;47.472;11.214;2023-07-30T07:17:04;17.00;99.90
25248;DHT22;13191;47.472;11.214;2023-07-30T07:19:30;17.10;99.90
25248;DHT22;13191;47.472;11.214;2023-07-30T07:21:56;17.10;99.90
25248;DHT22;13191;47.472;11.214;2023-07-30T07:24:22;17.10;99.90
25248;DHT22;13191;47.472;11.214;2023-07-30T07:26:47;17.10;99.90
25248;DHT22;13191;47.472;11.214;2023-07-30T07:29:13;17.20;99.90
25248;DHT22;13191;47.472;11.214;2023-07-30T07:31:38;17.20;99.90
25248;DHT22;13191;47.472;11.214;2023-07-30T07:34:04;17.20;99.90
25248;DHT22;13191;47.472;11.214;2023-07-30T07:36:29;17.30;99.90
25248;DHT22;13191;47.472;11.214;2023-07-30T07:38:55;17.30;99.90
25248;DHT22;13191;47.472;11.214;2023-07-30T07:41:21;17.40;99.90
25248;DHT22;13191;47.472;11.214;2023-07-30T07:43:47;17.60;99.90
25248;DHT22;13191;47.472;11.214;2023-07-30T07:46:13;17.50;99.90
25248;DHT22;13191;47.472;11.214;2023-07-30T07:48:42;17.50;99.90
25248;DHT22;13191;47.472;11.214;2023-07-30T07:51:09;17.50;99.90
25248;DHT22;13191;47.472;11.214;2023-07-30T07:53:36;17.40;99.90
25248;DHT22;13191;47.472;11.214;2023-07-30T07:56:02;17.40;99.90
25248;DHT22;13191;47.472;11.214;2023-07-30T07:58:27;17.40;99.90
25248;DHT22;13191;47.472;11.214;2023-07-30T08:00:58;17.40;99.90
25248;DHT22;13191;47.472;11.214;2023-07-30T08:03:24;17.40;99.90
25248;DHT22;13191;47.472;11.214;2023-07-30T08:05:52;17.40;99.90
25248;DHT22;13191;47.472;11.214;2023-07-30T08:08:17;17.40;99.90
25248;DHT22;13191;47.472;11.214;2023-07-30T08:10:43;17.40;99.90
25248;DHT22;13191;47.472;11.214;2023-07-30T08:13:11;17.40;99.90
25248;DHT22;13191;47.472;11.214;2023-07-30T08:15:37;17.40;99.90
25248;DHT22;13191;47.472;11.214;2023-07-30T08:18:02;17.40;99.90
25248;DHT22;13191;47.472;11.214;2023-07-30T08:20:28;17.40;99.90
25248;DHT22;13191;47.472;11.214;2023-07-30T08:22:53;17.40;99.90
25248;DHT22;13191;47.472;11.214;2023-07-30T08:25:19;17.40;99.90
25248;DHT22;13191;47.472;11.214;2023-07-30T08:27:45;17.50;99.90
25248;DHT22;13191;47.472;11.214;2023-07-30T08:30:11;17.50;99.90
25248;DHT22;13191;47.472;11.214;2023-07-30T08:32:37;17.50;99.90
25248;DHT22;13191;47.472;11.214;2023-07-30T08:35:03;17.60;99.90
25248;DHT22;13191;47.472;11.214;2023-07-30T08:37:29;17.60;99.90
25248;DHT22;13191;47.472;11.214;2023-07-30T08:39:55;17.70;99.90
25248;DHT22;13191;47.472;11.214;2023-07-30T08:42:20;17.70;99.90
25248;DHT22;13191;47.472;11.214;2023-07-30T08:44:46;17.70;99.90
25248;DHT22;13191;47.472;11.214;2023-07-30T08:47:12;17.80;99.90
25248;DHT22;13191;47.472;11.214;2023-07-30T08:49:37;17.80;99.90
25248;DHT22;13191;47.472;11.214;2023-07-30T08:52:03;18.00;99.90
25248;DHT22;13191;47.472;11.214;2023-07-30T08:54:31;18.00;99.90
25248;DHT22;13191;47.472;11.214;2023-07-30T08:57:01;18.10;99.90
25248;DHT22;13191;47.472;11.214;2023-07-30T08:59:27;18.20;99.90
25248;DHT22;13191;47.472;11.214;2023-07-30T09:01:56;18.20;99.90
25248;DHT22;13191;47.472;11.214;2023-07-30T09:04:23;18.20;99.90
25248;DHT22;13191;47.472;11.214;2023-07-30T09:06:49;18.30;99.90
25248;DHT22;13191;47.472;11.214;2023-07-30T09:09:16;18.30;99.90
25248;DHT22;13191;47.472;11.214;2023-07-30T09:11:41;18.50;99.90
25248;DHT22;13191;47.472;11.214;2023-07-30T09:14:07;18.60;99.90
25248;DHT22;13191;47.472;11.214;2023-07-30T09:16:34;18.50;99.90
25248;DHT22;13191;47.472;11.214;2023-07-30T09:19:00;18.50;99.90
25248;DHT22;13191;47.472;11.214;2023-07-30T09:23:56;18.60;99.90
25248;DHT22;13191;47.472;11.214;2023-07-30T09:26:22;18.80;99.90
25248;DHT22;13191;47.472;11.214;2023-07-30T09:28:47;19.00;99.90
25248;DHT22;13191;47.472;11.214;2023-07-30T09:31:13;19.00;99.90
25248;DHT22;13191;47.472;11.214;2023-07-30T09:33:41;19.00;99.90
25248;DHT22;13191;47.472;11.214;2023-07-30T09:36:08;19.10;99.90
25248;DHT22;13191;47.472;11.214;2023-07-30T09:38:42;19.00;99.90
25248;DHT22;13191;47.472;11.214;2023-07-30T09:41:08;19.00;99.90
25248;DHT22;13191;47.472;11.214;2023-07-30T09:43:35;19.00;99.90
25248;DHT22;13191;47.472;11.214;2023-07-30T09:46:02;18.90;99.90
25248;DHT22;13191;47.472;11.214;2023-07-30T09:48:30;18.80;99.90
25248;DHT22;13191;47.472;11.214;2023-07-30T09:51:01;18.70;99.90
25248;DHT22;13191;47.472;11.214;2023-07-30T09:53:31;18.70;99.90
25248;DHT22;13191;47.472;11.214;2023-07-30T09:56:02;18.70;99.90
25248;DHT22;13191;47.472;11.214;2023-07-30T09:58:28;18.80;99.90
25248;DHT22;13191;47.472;11.214;2023-07-30T10:00:54;18.80;99.90
25248;DHT22;13191;47.472;11.214;2023-07-30T10:03:21;18.80;99.90
25248;DHT22;13191;47.472;11.214;2023-07-30T10:05:47;18.80;99.90
25248;DHT22;13191;47.472;11.214;2023-07-30T10:08:21;18.90;99.90
25248;DHT22;13191;47.472;11.214;2023-07-30T10:10:48;19.00;99.90
25248;DHT22;13191;47.472;11.214;2023-07-30T10:13:15;19.00;99.90
25248;DHT22;13191;47.472;11.214;2023-07-30T10:15:42;19.10;99.90
25248;DHT22;13191;47.472;11.214;2023-07-30T10:18:08;19.10;99.90
25248;DHT22;13191;47.472;11.214;2023-07-30T10:20:34;19.20;99.90
25248;DHT22;13191;47.472;11.214;2023-07-30T10:23:00;19.20;99.90
25248;DHT22;13191;47.472;11.214;2023-07-30T10:27:54;19.20;99.90
25248;DHT22;13191;47.472;11.214;2023-07-30T10:30:20;19.20;99.90
25248;DHT22;13191;47.472;11.214;2023-07-30T10:35:42;19.30;99.90
25248;DHT22;13191;47.472;11.214;2023-07-30T10:38:18;19.50;99.90
25248;DHT22;13191;47.472;11.214;2023-07-30T10:41:07;19.60;99.90
25248;DHT22;13191;47.472;11.214;2023-07-30T10:43:41;19.70;99.90
25248;DHT22;13191;47.472;11.214;2023-07-30T10:46:13;19.80;99.90
25248;DHT22;13191;47.472;11.214;2023-07-30T10:48:41;19.90;99.90
25248;DHT22;13191;47.472;11.214;2023-07-30T10:51:10;20.00;99.90
25248;DHT22;13191;47.472;11.214;2023-07-30T10:53:36;20.20;99.90
25248;DHT22;13191;47.472;11.214;2023-07-30T10:56:06;20.40;99.90
25248;DHT22;13191;47.472;11.214;2023-07-30T10:58:33;20.50;99.90
25248;DHT22;13191;47.472;11.214;2023-07-30T11:01:02;20.60;99.90
25248;DHT22;13191;47.472;11.214;2023-07-30T11:03:29;20.70;99.90
25248;DHT22;13191;47.472;11.214;2023-07-30T11:05:55;20.70;99.90
25248;DHT22;13191;47.472;11.214;2023-07-30T11:08:38;20.80;99.90
25248;DHT22;13191;47.472;11.214;2023-07-30T11:11:05;20.90;99.90
25248;DHT22;13191;47.472;11.214;2023-07-30T11:13:43;20.90;99.90
25248;DHT22;13191;47.472;11.214;2023-07-30T11:16:12;21.00;99.90
25248;DHT22;13191;47.472;11.214;2023-07-30T11:18:38;21.00;99.90
25248;DHT22;13191;47.472;11.214;2023-07-30T11:21:05;21.10;99.90
25248;DHT22;13191;47.472;11.214;2023-07-30T11:23:30;21.10;99.90
25248;DHT22;13191;47.472;11.214;2023-07-30T11:25:56;21.20;99.90
25248;DHT22;13191;47.472;11.214;2023-07-30T11:28:36;21.30;99.90
25248;DHT22;13191;47.472;11.214;2023-07-30T11:31:10;21.20;99.90
25248;DHT22;13191;47.472;11.214;2023-07-30T11:33:38;21.10;99.90
25248;DHT22;13191;47.472;11.214;2023-07-30T11:36:07;21.10;99.90
25248;DHT22;13191;47.472;11.214;2023-07-30T11:38:38;21.10;99.90
25248;DHT22;13191;47.472;11.214;2023-07-30T11:41:04;21.20;99.90
25248;DHT22;13191;47.472;11.214;2023-07-30T11:43:31;21.20;99.90
25248;DHT22;13191;47.472;11.214;2023-07-30T11:46:14;21.20;99.90
25248;DHT22;13191;47.472;11.214;2023-07-30T11:48:42;21.30;99.90
25248;DHT22;13191;47.472;11.214;2023-07-30T11:53:58;21.40;99.90
25248;DHT22;13191;47.472;11.214;2023-07-30T11:56:29;21.50;99.90
25248;DHT22;13191;47.472;11.214;2023-07-30T11:58:57;21.50;99.90
25248;DHT22;13191;47.472;11.214;2023-07-30T12:01:30;21.50;99.90
25248;DHT22;13191;47.472;11.214;2023-07-30T12:03:58;21.40;99.90
25248;DHT22;13191;47.472;11.214;2023-07-30T12:06:24;21.50;99.90
25248;DHT22;13191;47.472;11.214;2023-07-30T12:08:50;21.50;99.90
25248;DHT22;13191;47.472;11.214;2023-07-30T12:11:17;21.50;99.90
25248;DHT22;13191;47.472;11.214;2023-07-30T12:13:45;21.50;99.90
25248;DHT22;13191;47.472;11.214;2023-07-30T12:16:12;21.60;99.90
25248;DHT22;13191;47.472;11.214;2023-07-30T12:18:38;21.60;99.90
25248;DHT22;13191;47.472;11.214;2023-07-30T12:21:05;21.60;99.90
25248;DHT22;13191;47.472;11.214;2023-07-30T12:23:36;21.60;99.90
25248;DHT22;13191;47.472;11.214;2023-07-30T12:26:02;21.50;99.90
25248;DHT22;13191;47.472;11.214;2023-07-30T12:28:32;21.50;99.90
25248;DHT22;13191;47.472;11.214;2023-07-30T12:30:59;21.30;99.90
25248;DHT22;13191;47.472;11.214;2023-07-30T12:33:25;21.10;99.90
25248;DHT22;13191;47.472;11.214;2023-07-30T12:35:50;21.20;99.90
25248;DHT22;13191;47.472;11.214;2023-07-30T12:38:16;21.20;99.90
25248;DHT22;13191;47.472;11.214;2023-07-30T12:40:51;21.20;99.90
25248;DHT22;13191;47.472;11.214;2023-07-30T12:43:16;21.10;99.90
25248;DHT22;13191;47.472;11.214;2023-07-30T12:45:44;21.10;99.90
25248;DHT22;13191;47.472;11.214;2023-07-30T12:48:09;21.00;99.90
25248;DHT22;13191;47.472;11.214;2023-07-30T12:50:35;20.90;99.90
25248;DHT22;13191;47.472;11.214;2023-07-30T12:53:01;20.90;99.90
25248;DHT22;13191;47.472;11.214;2023-07-30T12:55:26;20.80;99.90
25248;DHT22;13191;47.472;11.214;2023-07-30T12:57:52;20.70;99.90
25248;DHT22;13191;47.472;11.214;2023-07-30T13:00:17;20.60;99.90
25248;DHT22;13191;47.472;11.214;2023-07-30T13:02:43;20.50;99.90
25248;DHT22;13191;47.472;11.214;2023-07-30T13:05:09;20.40;99.90
25248;DHT22;13191;47.472;11.214;2023-07-30T13:07:35;20.40;99.90
25248;DHT22;13191;47.472;11.214;2023-07-30T13:10:04;20.40;99.90
25248;DHT22;13191;47.472;11.214;2023-07-30T13:12:31;20.20;99.90
25248;DHT22;13191;47.472;11.214;2023-07-30T13:14:56;19.70;99.90
25248;DHT22;13191;47.472;11.214;2023-07-30T13:17:22;19.60;99.90
25248;DHT22;13191;47.472;11.214;2023-07-30T13:19:47;19.40;99.90
25248;DHT22;13191;47.472;11.214;2023-07-30T13:22:13;19.20;99.90
25248;DHT22;13191;47.472;11.214;2023-07-30T13:24:38;19.10;99.90
25248;DHT22;13191;47.472;11.214;2023-07-30T13:27:05;18.80;99.90
25248;DHT22;13191;47.472;11.214;2023-07-30T13:29:30;18.70;99.90
25248;DHT22;13191;47.472;11.214;2023-07-30T13:31:56;18.70;99.90
25248;DHT22;13191;47.472;11.214;2023-07-30T13:34:22;18.60;99.90
25248;DHT22;13191;47.472;11.214;2023-07-30T13:36:47;18.60;99.90
25248;DHT22;13191;47.472;11.214;2023-07-30T13:39:13;18.70;99.90
25248;DHT22;13191;47.472;11.214;2023-07-30T13:41:38;18.70;99.90
25248;DHT22;13191;47.472;11.214;2023-07-30T13:44:04;18.90;99.90
25248;DHT22;13191;47.472;11.214;2023-07-30T13:46:30;19.10;99.90
25248;DHT22;13191;47.472;11.214;2023-07-30T13:48:55;19.20;99.90
25248;DHT22;13191;47.472;11.214;2023-07-30T13:51:21;19.30;99.90
25248;DHT22;13191;47.472;11.214;2023-07-30T13:53:46;19.40;99.90
25248;DHT22;13191;47.472;11.214;2023-07-30T13:56:12;19.40;99.90
25248;DHT22;13191;47.472;11.214;2023-07-30T13:58:38;19.40;99.90
25248;DHT22;13191;47.472;11.214;2023-07-30T14:01:05;19.40;99.90
25248;DHT22;13191;47.472;11.214;2023-07-30T14:03:31;19.40;99.90
25248;DHT22;13191;47.472;11.214;2023-07-30T14:05:57;19.60;99.90
25248;DHT22;13191;47.472;11.214;2023-07-30T14:08:23;19.60;99.90
25248;DHT22;13191;47.472;11.214;2023-07-30T14:10:49;19.70;99.90
25248;DHT22;13191;47.472;11.214;2023-07-30T14:13:14;19.70;99.90
25248;DHT22;13191;47.472;11.214;2023-07-30T14:15:40;20.00;99.90
25248;DHT22;13191;47.472;11.214;2023-07-30T14:18:06;20.00;99.90
25248;DHT22;13191;47.472;11.214;2023-07-30T14:20:35;20.10;99.90
25248;DHT22;13191;47.472;11.214;2023-07-30T14:23:03;20.20;99.90
25248;DHT22;13191;47.472;11.214;2023-07-30T14:25:29;20.00;99.90
25248;DHT22;13191;47.472;11.214;2023-07-30T14:27:55;20.00;99.90
25248;DHT22;13191;47.472;11.214;2023-07-30T14:30:21;20.20;99.90
25248;DHT22;13191;47.472;11.214;2023-07-30T14:32:46;20.50;99.90
25248;DHT22;13191;47.472;11.214;2023-07-30T14:35:12;20.70;99.90
25248;DHT22;13191;47.472;11.214;2023-07-30T14:37:38;21.00;99.90
25248;DHT22;13191;47.472;11.214;2023-07-30T14:40:04;21.10;99.90
25248;DHT22;13191;47.472;11.214;2023-07-30T14:42:30;21.20;99.90
25248;DHT22;13191;47.472;11.214;2023-07-30T14:44:55;21.30;99.90
25248;DHT22;13191;47.472;11.214;2023-07-30T14:47:21;21.50;99.90
25248;DHT22;13191;47.472;11.214;2023-07-30T14:49:55;21.70;99.90
25248;DHT22;13191;47.472;11.214;2023-07-30T14:52:23;21.90;99.90
25248;DHT22;13191;47.472;11.214;2023-07-30T14:54:48;21.90;99.90
25248;DHT22;13191;47.472;11.214;2023-07-30T14:57:14;22.00;99.90
25248;DHT22;13191;47.472;11.214;2023-07-30T14:59:40;22.00;99.90
25248;DHT22;13191;47.472;11.214;2023-07-30T15:02:06;22.20;99.90
25248;DHT22;13191;47.472;11.214;2023-07-30T15:04:32;22.40;99.90
25248;DHT22;13191;47.472;11.214;2023-07-30T15:06:58;22.40;99.90
25248;DHT22;13191;47.472;11.214;2023-07-30T15:09:23;22.40;99.90
25248;DHT22;13191;47.472;11.214;2023-07-30T15:11:49;22.30;99.90
25248;DHT22;13191;47.472;11.214;2023-07-30T15:14:15;22.10;99.90
25248;DHT22;13191;47.472;11.214;2023-07-30T15:16:40;22.10;99.90
25248;DHT22;13191;47.472;11.214;2023-07-30T15:19:06;22.30;99.90
25248;DHT22;13191;47.472;11.214;2023-07-30T15:21:31;22.50;99.90
25248;DHT22;13191;47.472;11.214;2023-07-30T15:23:57;22.90;99.90